sensor_id;sensor_type;location;lat;lon;timestamp;P1;durP1;ratioP1;P2;durP2;ratioP2
11191;SDS011;5652;48.406;10.820;2024-02-16T00:01:52;19.35;;;14.77;;
11191;SDS011;5652;48.406;10.820;2024-02-16T00:04:19;18.80;;;15.38;;
11191;SDS011;5652;48.406;10.820;2024-02-16T00:06:48;19.77;;;15.40;;
11191;SDS011;5652;48.406;10.820;2024-02-16T00:09:15;18.38;;;14.73;;
11191;SDS011;5652;48.406;10.820;2024-02-16T00:11:42;19.55;;;14.98;;
11191;SDS011;5652;48.406;10.820;2024-02-16T00:14:10;17.83;;;14.75;;
11191;SDS011;5652;48.406;10.820;2024-02-16T00:16:37;19.17;;;14.70;;
11191;SDS011;5652;48.406;10.820;2024-02-16T00:19:04;17.57;;;13.67;;
11191;SDS011;5652;48.406;10.820;2024-02-16T00:21:31;19.70;;;15.48;;
11191;SDS011;5652;48.406;10.820;2024-02-16T00:23:59;19.98;;;15.32;;
11191;SDS011;5652;48.406;10.820;2024-02-16T00:26:27;21.65;;;17.35;;
11191;SDS011;5652;48.406;10.820;2024-02-16T00:28:55;21.05;;;16.85;;
11191;SDS011;5652;48.406;10.820;2024-02-16T00:31:22;20.35;;;16.63;;
11191;SDS011;5652;48.406;10.820;2024-02-16T00:33:50;22.67;;;17.27;;
11191;SDS011;5652;48.406;10.820;2024-02-16T00:36:17;24.37;;;18.57;;
11191;SDS011;5652;48.406;10.820;2024-02-16T00:38:44;22.73;;;17.77;;
11191;SDS011;5652;48.406;10.820;2024-02-16T00:41:18;22.13;;;17.58;;
11191;SDS011;5652;48.406;10.820;2024-02-16T00:43:45;23.02;;;18.23;;
11191;SDS011;5652;48.406;10.820;2024-02-16T00:46:12;23.85;;;18.30;;
11191;SDS011;5652;48.406;10.820;2024-02-16T00:48:39;21.13;;;17.17;;
11191;SDS011;5652;48.406;10.820;2024-02-16T00:51:06;20.85;;;16.45;;
11191;SDS011;5652;48.406;10.820;2024-02-16T00:53:33;22.90;;;16.05;;
11191;SDS011;5652;48.406;10.820;2024-02-16T00:56:00;19.40;;;14.98;;
11191;SDS011;5652;48.406;10.820;2024-02-16T00:58:29;19.02;;;15.35;;
11191;SDS011;5652;48.406;10.820;2024-02-16T01:00:56;22.38;;;17.88;;
11191;SDS011;5652;48.406;10.820;2024-02-16T01:03:23;22.20;;;16.83;;
11191;SDS011;5652;48.406;10.820;2024-02-16T01:05:51;20.20;;;15.93;;
11191;SDS011;5652;48.406;10.820;2024-02-16T01:08:18;18.02;;;14.30;;
11191;SDS011;5652;48.406;10.820;2024-02-16T01:10:45;20.65;;;14.80;;
11191;SDS011;5652;48.406;10.820;2024-02-16T01:13:12;19.70;;;15.30;;
11191;SDS011;5652;48.406;10.820;2024-02-16T01:15:41;17.67;;;14.18;;
11191;SDS011;5652;48.406;10.820;2024-02-16T01:18:08;17.63;;;13.75;;
11191;SDS011;5652;48.406;10.820;2024-02-16T01:20:35;17.95;;;14.40;;
11191;SDS011;5652;48.406;10.820;2024-02-16T01:23:03;15.65;;;12.27;;
11191;SDS011;5652;48.406;10.820;2024-02-16T01:25:30;19.90;;;13.02;;
11191;SDS011;5652;48.406;10.820;2024-02-16T01:27:57;16.88;;;12.68;;
11191;SDS011;5652;48.406;10.820;2024-02-16T01:30:24;17.75;;;13.43;;
11191;SDS011;5652;48.406;10.820;2024-02-16T01:32:53;16.85;;;14.18;;
11191;SDS011;5652;48.406;10.820;2024-02-16T01:35:20;21.60;;;15.50;;
11191;SDS011;5652;48.406;10.820;2024-02-16T01:37:47;22.40;;;16.98;;
11191;SDS011;5652;48.406;10.820;2024-02-16T01:40:14;20.13;;;16.27;;
11191;SDS011;5652;48.406;10.820;2024-02-16T01:42:42;20.48;;;15.43;;
11191;SDS011;5652;48.406;10.820;2024-02-16T01:45:10;20.63;;;15.38;;
11191;SDS011;5652;48.406;10.820;2024-02-16T01:47:38;23.45;;;15.57;;
11191;SDS011;5652;48.406;10.820;2024-02-16T01:50:07;19.67;;;15.00;;
11191;SDS011;5652;48.406;10.820;2024-02-16T01:52:35;18.85;;;13.52;;
11191;SDS011;5652;48.406;10.820;2024-02-16T01:55:03;17.38;;;13.82;;
11191;SDS011;5652;48.406;10.820;2024-02-16T01:57:32;20.85;;;14.93;;
11191;SDS011;5652;48.406;10.820;2024-02-16T01:59:59;19.27;;;13.98;;
11191;SDS011;5652;48.406;10.820;2024-02-16T02:02:26;16.70;;;13.65;;
11191;SDS011;5652;48.406;10.820;2024-02-16T02:04:53;17.23;;;13.07;;
11191;SDS011;5652;48.406;10.820;2024-02-16T02:07:24;16.58;;;12.68;;
11191;SDS011;5652;48.406;10.820;2024-02-16T02:09:52;16.65;;;13.73;;
11191;SDS011;5652;48.406;10.820;2024-02-16T02:12:19;18.00;;;13.98;;
11191;SDS011;5652;48.406;10.820;2024-02-16T02:14:47;17.02;;;11.80;;
11191;SDS011;5652;48.406;10.820;2024-02-16T02:17:14;17.67;;;12.05;;
11191;SDS011;5652;48.406;10.820;2024-02-16T02:19:41;16.23;;;11.50;;
11191;SDS011;5652;48.406;10.820;2024-02-16T02:22:13;17.73;;;12.38;;
11191;SDS011;5652;48.406;10.820;2024-02-16T02:24:40;18.83;;;13.77;;
11191;SDS011;5652;48.406;10.820;2024-02-16T02:27:07;18.33;;;13.80;;
11191;SDS011;5652;48.406;10.820;2024-02-16T02:29:34;16.73;;;14.00;;
11191;SDS011;5652;48.406;10.820;2024-02-16T02:32:01;24.13;;;17.35;;
11191;SDS011;5652;48.406;10.820;2024-02-16T02:34:29;22.80;;;15.38;;
11191;SDS011;5652;48.406;10.820;2024-02-16T02:36:56;22.03;;;15.77;;
11191;SDS011;5652;48.406;10.820;2024-02-16T02:39:24;22.13;;;15.48;;
11191;SDS011;5652;48.406;10.820;2024-02-16T02:41:51;23.90;;;16.45;;
11191;SDS011;5652;48.406;10.820;2024-02-16T02:44:18;21.20;;;16.10;;
11191;SDS011;5652;48.406;10.820;2024-02-16T02:46:46;21.73;;;16.38;;
11191;SDS011;5652;48.406;10.820;2024-02-16T02:49:13;23.15;;;16.52;;
11191;SDS011;5652;48.406;10.820;2024-02-16T02:51:40;21.37;;;16.23;;
11191;SDS011;5652;48.406;10.820;2024-02-16T02:54:07;20.30;;;15.88;;
11191;SDS011;5652;48.406;10.820;2024-02-16T02:56:36;23.02;;;15.55;;
11191;SDS011;5652;48.406;10.820;2024-02-16T02:59:03;20.20;;;14.00;;
11191;SDS011;5652;48.406;10.820;2024-02-16T03:01:30;18.20;;;14.03;;
11191;SDS011;5652;48.406;10.820;2024-02-16T03:03:58;16.80;;;12.82;;
11191;SDS011;5652;48.406;10.820;2024-02-16T03:06:26;18.13;;;13.40;;
11191;SDS011;5652;48.406;10.820;2024-02-16T03:08:53;20.58;;;12.95;;
11191;SDS011;5652;48.406;10.820;2024-02-16T03:11:20;16.70;;;13.00;;
11191;SDS011;5652;48.406;10.820;2024-02-16T03:13:49;17.02;;;12.75;;
11191;SDS011;5652;48.406;10.820;2024-02-16T03:16:16;14.82;;;11.88;;
11191;SDS011;5652;48.406;10.820;2024-02-16T03:18:43;14.52;;;11.93;;
11191;SDS011;5652;48.406;10.820;2024-02-16T03:21:12;15.50;;;11.88;;
11191;SDS011;5652;48.406;10.820;2024-02-16T03:23:41;13.02;;;11.23;;
11191;SDS011;5652;48.406;10.820;2024-02-16T03:26:13;13.40;;;11.20;;
11191;SDS011;5652;48.406;10.820;2024-02-16T03:28:40;13.32;;;10.95;;
11191;SDS011;5652;48.406;10.820;2024-02-16T03:31:14;13.00;;;10.70;;
11191;SDS011;5652;48.406;10.820;2024-02-16T03:33:41;11.88;;;10.00;;
11191;SDS011;5652;48.406;10.820;2024-02-16T03:36:09;12.40;;;10.37;;
11191;SDS011;5652;48.406;10.820;2024-02-16T03:38:37;14.93;;;10.45;;
11191;SDS011;5652;48.406;10.820;2024-02-16T03:41:04;13.48;;;10.48;;
11191;SDS011;5652;48.406;10.820;2024-02-16T03:43:31;12.90;;;10.43;;
11191;SDS011;5652;48.406;10.820;2024-02-16T03:45:58;12.57;;;10.70;;
11191;SDS011;5652;48.406;10.820;2024-02-16T03:48:27;13.48;;;10.05;;
11191;SDS011;5652;48.406;10.820;2024-02-16T03:50:54;13.63;;;9.85;;
11191;SDS011;5652;48.406;10.820;2024-02-16T03:53:21;13.82;;;10.18;;
11191;SDS011;5652;48.406;10.820;2024-02-16T03:55:48;12.77;;;10.00;;
11191;SDS011;5652;48.406;10.820;2024-02-16T03:58:15;13.30;;;10.27;;
11191;SDS011;5652;48.406;10.820;2024-02-16T04:00:43;13.35;;;10.00;;
11191;SDS011;5652;48.406;10.820;2024-02-16T04:03:10;12.35;;;9.35;;
11191;SDS011;5652;48.406;10.820;2024-02-16T04:05:39;12.43;;;8.88;;
11191;SDS011;5652;48.406;10.820;2024-02-16T04:08:06;11.00;;;9.43;;
11191;SDS011;5652;48.406;10.820;2024-02-16T04:10:33;14.00;;;9.73;;
11191;SDS011;5652;48.406;10.820;2024-02-16T04:13:01;11.65;;;9.52;;
11191;SDS011;5652;48.406;10.820;2024-02-16T04:15:28;12.15;;;9.45;;
11191;SDS011;5652;48.406;10.820;2024-02-16T04:17:55;12.13;;;9.43;;
11191;SDS011;5652;48.406;10.820;2024-02-16T04:20:22;12.90;;;10.10;;
11191;SDS011;5652;48.406;10.820;2024-02-16T04:22:50;10.75;;;9.40;;
11191;SDS011;5652;48.406;10.820;2024-02-16T04:25:17;12.93;;;9.63;;
11191;SDS011;5652;48.406;10.820;2024-02-16T04:27:45;11.10;;;9.50;;
11191;SDS011;5652;48.406;10.820;2024-02-16T04:30:12;12.52;;;9.55;;
11191;SDS011;5652;48.406;10.820;2024-02-16T04:32:39;11.00;;;9.20;;
11191;SDS011;5652;48.406;10.820;2024-02-16T04:35:06;11.17;;;9.03;;
11191;SDS011;5652;48.406;10.820;2024-02-16T04:37:36;11.30;;;9.32;;
11191;SDS011;5652;48.406;10.820;2024-02-16T04:40:06;12.68;;;9.38;;
11191;SDS011;5652;48.406;10.820;2024-02-16T04:42:37;11.75;;;9.30;;
11191;SDS011;5652;48.406;10.820;2024-02-16T04:45:05;14.57;;;9.80;;
11191;SDS011;5652;48.406;10.820;2024-02-16T04:47:32;11.82;;;9.60;;
11191;SDS011;5652;48.406;10.820;2024-02-16T04:49:59;11.80;;;9.65;;
11191;SDS011;5652;48.406;10.820;2024-02-16T04:52:26;12.35;;;10.10;;
11191;SDS011;5652;48.406;10.820;2024-02-16T04:54:53;12.68;;;9.80;;
11191;SDS011;5652;48.406;10.820;2024-02-16T04:57:22;11.02;;;9.27;;
11191;SDS011;5652;48.406;10.820;2024-02-16T04:59:49;11.95;;;9.57;;
11191;SDS011;5652;48.406;10.820;2024-02-16T05:02:16;11.82;;;9.18;;
11191;SDS011;5652;48.406;10.820;2024-02-16T05:04:44;11.20;;;8.93;;
11191;SDS011;5652;48.406;10.820;2024-02-16T05:07:11;11.13;;;9.05;;
11191;SDS011;5652;48.406;10.820;2024-02-16T05:09:38;11.25;;;9.32;;
11191;SDS011;5652;48.406;10.820;2024-02-16T05:12:06;12.40;;;9.98;;
11191;SDS011;5652;48.406;10.820;2024-02-16T05:14:35;13.27;;;9.80;;
11191;SDS011;5652;48.406;10.820;2024-02-16T05:17:02;12.48;;;10.27;;
11191;SDS011;5652;48.406;10.820;2024-02-16T05:19:31;12.73;;;9.95;;
11191;SDS011;5652;48.406;10.820;2024-02-16T05:21:59;14.05;;;9.70;;
11191;SDS011;5652;48.406;10.820;2024-02-16T05:24:26;12.55;;;9.57;;
11191;SDS011;5652;48.406;10.820;2024-02-16T05:26:53;11.77;;;9.60;;
11191;SDS011;5652;48.406;10.820;2024-02-16T05:29:21;12.45;;;9.00;;
11191;SDS011;5652;48.406;10.820;2024-02-16T05:31:51;12.38;;;9.18;;
11191;SDS011;5652;48.406;10.820;2024-02-16T05:34:18;11.35;;;9.30;;
11191;SDS011;5652;48.406;10.820;2024-02-16T05:36:46;11.38;;;9.02;;
11191;SDS011;5652;48.406;10.820;2024-02-16T05:39:13;10.15;;;9.10;;
11191;SDS011;5652;48.406;10.820;2024-02-16T05:41:51;11.35;;;8.77;;
11191;SDS011;5652;48.406;10.820;2024-02-16T05:44:19;11.43;;;8.65;;
11191;SDS011;5652;48.406;10.820;2024-02-16T05:46:46;13.10;;;9.65;;
11191;SDS011;5652;48.406;10.820;2024-02-16T05:49:15;11.27;;;9.20;;
11191;SDS011;5652;48.406;10.820;2024-02-16T05:51:42;12.82;;;9.45;;
11191;SDS011;5652;48.406;10.820;2024-02-16T05:54:28;11.27;;;9.73;;
11191;SDS011;5652;48.406;10.820;2024-02-16T05:56:55;12.05;;;10.38;;
11191;SDS011;5652;48.406;10.820;2024-02-16T05:59:22;14.15;;;10.00;;
11191;SDS011;5652;48.406;10.820;2024-02-16T06:01:50;11.50;;;10.30;;
11191;SDS011;5652;48.406;10.820;2024-02-16T06:04:18;11.77;;;10.18;;
11191;SDS011;5652;48.406;10.820;2024-02-16T06:06:45;14.13;;;10.73;;
11191;SDS011;5652;48.406;10.820;2024-02-16T06:09:12;11.82;;;9.70;;
11191;SDS011;5652;48.406;10.820;2024-02-16T06:11:39;13.30;;;9.82;;
11191;SDS011;5652;48.406;10.820;2024-02-16T06:14:06;17.05;;;12.98;;
11191;SDS011;5652;48.406;10.820;2024-02-16T06:16:33;16.35;;;13.23;;
11191;SDS011;5652;48.406;10.820;2024-02-16T06:19:01;17.10;;;13.20;;
11191;SDS011;5652;48.406;10.820;2024-02-16T06:21:29;15.00;;;12.10;;
11191;SDS011;5652;48.406;10.820;2024-02-16T06:23:56;13.53;;;10.50;;
11191;SDS011;5652;48.406;10.820;2024-02-16T06:26:23;13.32;;;10.10;;
11191;SDS011;5652;48.406;10.820;2024-02-16T06:28:50;12.88;;;10.20;;
11191;SDS011;5652;48.406;10.820;2024-02-16T06:31:17;12.00;;;9.98;;
11191;SDS011;5652;48.406;10.820;2024-02-16T06:33:45;13.60;;;10.50;;
11191;SDS011;5652;48.406;10.820;2024-02-16T06:36:12;13.38;;;9.90;;
11191;SDS011;5652;48.406;10.820;2024-02-16T06:38:40;14.57;;;10.18;;
11191;SDS011;5652;48.406;10.820;2024-02-16T06:41:07;14.35;;;10.55;;
11191;SDS011;5652;48.406;10.820;2024-02-16T06:43:35;13.85;;;10.27;;
11191;SDS011;5652;48.406;10.820;2024-02-16T06:46:02;12.55;;;10.43;;
11191;SDS011;5652;48.406;10.820;2024-02-16T06:48:30;13.30;;;9.80;;
11191;SDS011;5652;48.406;10.820;2024-02-16T06:50:57;12.40;;;10.35;;
11191;SDS011;5652;48.406;10.820;2024-02-16T06:53:24;15.30;;;10.50;;
11191;SDS011;5652;48.406;10.820;2024-02-16T06:55:52;12.05;;;9.88;;
11191;SDS011;5652;48.406;10.820;2024-02-16T06:58:19;12.90;;;10.10;;
11191;SDS011;5652;48.406;10.820;2024-02-16T07:00:46;13.60;;;10.77;;
11191;SDS011;5652;48.406;10.820;2024-02-16T07:03:14;14.00;;;11.07;;
11191;SDS011;5652;48.406;10.820;2024-02-16T07:05:41;14.52;;;11.10;;
11191;SDS011;5652;48.406;10.820;2024-02-16T07:08:08;14.27;;;11.20;;
11191;SDS011;5652;48.406;10.820;2024-02-16T07:10:35;14.70;;;10.82;;
11191;SDS011;5652;48.406;10.820;2024-02-16T07:13:04;13.25;;;11.00;;
11191;SDS011;5652;48.406;10.820;2024-02-16T07:15:31;14.60;;;11.35;;
11191;SDS011;5652;48.406;10.820;2024-02-16T07:17:58;15.65;;;11.10;;
11191;SDS011;5652;48.406;10.820;2024-02-16T07:20:26;15.77;;;11.53;;
11191;SDS011;5652;48.406;10.820;2024-02-16T07:22:53;13.45;;;10.65;;
11191;SDS011;5652;48.406;10.820;2024-02-16T07:25:20;13.70;;;11.40;;
11191;SDS011;5652;48.406;10.820;2024-02-16T07:27:47;14.40;;;10.65;;
11191;SDS011;5652;48.406;10.820;2024-02-16T07:30:16;15.52;;;11.55;;
11191;SDS011;5652;48.406;10.820;2024-02-16T07:32:43;15.60;;;11.13;;
11191;SDS011;5652;48.406;10.820;2024-02-16T07:35:15;12.98;;;10.93;;
11191;SDS011;5652;48.406;10.820;2024-02-16T07:37:42;13.73;;;10.73;;
11191;SDS011;5652;48.406;10.820;2024-02-16T07:40:09;13.70;;;10.57;;
11191;SDS011;5652;48.406;10.820;2024-02-16T07:42:37;12.57;;;10.52;;
11191;SDS011;5652;48.406;10.820;2024-02-16T07:45:07;12.88;;;10.90;;
11191;SDS011;5652;48.406;10.820;2024-02-16T07:47:38;11.43;;;10.23;;
11191;SDS011;5652;48.406;10.820;2024-02-16T07:50:05;12.57;;;10.00;;
11191;SDS011;5652;48.406;10.820;2024-02-16T07:52:32;12.95;;;9.75;;
11191;SDS011;5652;48.406;10.820;2024-02-16T07:54:59;12.73;;;8.88;;
11191;SDS011;5652;48.406;10.820;2024-02-16T07:57:26;10.85;;;8.63;;
11191;SDS011;5652;48.406;10.820;2024-02-16T07:59:55;9.83;;;7.37;;
11191;SDS011;5652;48.406;10.820;2024-02-16T08:02:22;8.18;;;6.93;;
11191;SDS011;5652;48.406;10.820;2024-02-16T08:04:51;8.57;;;7.53;;
11191;SDS011;5652;48.406;10.820;2024-02-16T08:07:19;8.85;;;7.35;;
11191;SDS011;5652;48.406;10.820;2024-02-16T08:09:46;9.57;;;7.00;;
11191;SDS011;5652;48.406;10.820;2024-02-16T08:12:13;9.77;;;7.00;;
11191;SDS011;5652;48.406;10.820;2024-02-16T08:14:40;9.45;;;7.07;;
11191;SDS011;5652;48.406;10.820;2024-02-16T08:17:07;9.15;;;7.40;;
11191;SDS011;5652;48.406;10.820;2024-02-16T08:19:35;7.93;;;6.25;;
11191;SDS011;5652;48.406;10.820;2024-02-16T08:22:05;8.90;;;5.20;;
11191;SDS011;5652;48.406;10.820;2024-02-16T08:24:32;5.85;;;4.53;;
11191;SDS011;5652;48.406;10.820;2024-02-16T08:26:59;5.35;;;4.20;;
11191;SDS011;5652;48.406;10.820;2024-02-16T08:29:27;4.80;;;4.10;;
11191;SDS011;5652;48.406;10.820;2024-02-16T08:31:54;4.97;;;3.90;;
11191;SDS011;5652;48.406;10.820;2024-02-16T08:34:21;6.10;;;4.20;;
11191;SDS011;5652;48.406;10.820;2024-02-16T08:36:51;6.20;;;3.93;;
11191;SDS011;5652;48.406;10.820;2024-02-16T08:39:19;4.22;;;3.53;;
11191;SDS011;5652;48.406;10.820;2024-02-16T08:41:50;4.47;;;3.50;;
11191;SDS011;5652;48.406;10.820;2024-02-16T08:44:17;5.53;;;3.95;;
11191;SDS011;5652;48.406;10.820;2024-02-16T08:46:44;5.15;;;3.70;;
11191;SDS011;5652;48.406;10.820;2024-02-16T08:49:13;5.70;;;3.60;;
11191;SDS011;5652;48.406;10.820;2024-02-16T08:51:41;5.13;;;3.60;;
11191;SDS011;5652;48.406;10.820;2024-02-16T08:54:08;4.05;;;3.55;;
11191;SDS011;5652;48.406;10.820;2024-02-16T08:56:36;4.57;;;3.80;;
11191;SDS011;5652;48.406;10.820;2024-02-16T08:59:04;4.97;;;3.65;;
11191;SDS011;5652;48.406;10.820;2024-02-16T09:01:31;5.65;;;3.90;;
11191;SDS011;5652;48.406;10.820;2024-02-16T09:03:59;4.20;;;3.75;;
11191;SDS011;5652;48.406;10.820;2024-02-16T09:06:26;5.82;;;4.00;;
11191;SDS011;5652;48.406;10.820;2024-02-16T09:08:53;6.13;;;4.30;;
11191;SDS011;5652;48.406;10.820;2024-02-16T09:11:21;5.05;;;4.20;;
11191;SDS011;5652;48.406;10.820;2024-02-16T09:13:50;6.03;;;4.30;;
11191;SDS011;5652;48.406;10.820;2024-02-16T09:16:17;5.00;;;4.00;;
11191;SDS011;5652;48.406;10.820;2024-02-16T09:18:44;6.00;;;4.40;;
11191;SDS011;5652;48.406;10.820;2024-02-16T09:21:13;6.03;;;4.50;;
11191;SDS011;5652;48.406;10.820;2024-02-16T09:23:40;5.77;;;4.37;;
11191;SDS011;5652;48.406;10.820;2024-02-16T09:26:07;5.50;;;4.50;;
11191;SDS011;5652;48.406;10.820;2024-02-16T09:28:38;6.05;;;4.35;;
11191;SDS011;5652;48.406;10.820;2024-02-16T09:31:07;5.82;;;4.18;;
11191;SDS011;5652;48.406;10.820;2024-02-16T09:33:34;5.10;;;4.28;;
11191;SDS011;5652;48.406;10.820;2024-02-16T09:36:02;5.45;;;4.40;;
11191;SDS011;5652;48.406;10.820;2024-02-16T09:38:29;5.18;;;4.43;;
11191;SDS011;5652;48.406;10.820;2024-02-16T09:40:57;8.38;;;5.82;;
11191;SDS011;5652;48.406;10.820;2024-02-16T09:43:24;4.82;;;3.63;;
11191;SDS011;5652;48.406;10.820;2024-02-16T09:45:52;6.63;;;4.28;;
11191;SDS011;5652;48.406;10.820;2024-02-16T09:48:21;5.82;;;4.30;;
11191;SDS011;5652;48.406;10.820;2024-02-16T09:53:16;5.72;;;4.10;;
11191;SDS011;5652;48.406;10.820;2024-02-16T09:55:43;6.10;;;4.00;;
11191;SDS011;5652;48.406;10.820;2024-02-16T09:58:11;4.68;;;3.90;;
11191;SDS011;5652;48.406;10.820;2024-02-16T10:00:42;5.15;;;3.78;;
11191;SDS011;5652;48.406;10.820;2024-02-16T10:03:20;4.85;;;3.90;;
11191;SDS011;5652;48.406;10.820;2024-02-16T10:05:49;4.85;;;4.00;;
11191;SDS011;5652;48.406;10.820;2024-02-16T10:08:16;5.50;;;3.90;;
11191;SDS011;5652;48.406;10.820;2024-02-16T10:10:44;5.70;;;4.07;;
11191;SDS011;5652;48.406;10.820;2024-02-16T10:13:11;5.03;;;3.88;;
11191;SDS011;5652;48.406;10.820;2024-02-16T10:15:38;5.13;;;4.00;;
11191;SDS011;5652;48.406;10.820;2024-02-16T10:18:05;6.65;;;3.97;;
11191;SDS011;5652;48.406;10.820;2024-02-16T10:20:33;5.00;;;3.72;;
11191;SDS011;5652;48.406;10.820;2024-02-16T10:23:05;5.72;;;4.10;;
11191;SDS011;5652;48.406;10.820;2024-02-16T10:25:32;4.45;;;3.70;;
11191;SDS011;5652;48.406;10.820;2024-02-16T10:28:00;5.35;;;3.58;;
11191;SDS011;5652;48.406;10.820;2024-02-16T10:30:30;4.70;;;3.83;;
11191;SDS011;5652;48.406;10.820;2024-02-16T10:32:58;6.18;;;3.60;;
11191;SDS011;5652;48.406;10.820;2024-02-16T10:35:27;5.55;;;3.65;;
11191;SDS011;5652;48.406;10.820;2024-02-16T10:37:56;3.97;;;3.30;;
11191;SDS011;5652;48.406;10.820;2024-02-16T10:40:25;5.10;;;3.45;;
11191;SDS011;5652;48.406;10.820;2024-02-16T10:42:53;4.70;;;3.50;;
11191;SDS011;5652;48.406;10.820;2024-02-16T10:45:21;4.73;;;3.37;;
11191;SDS011;5652;48.406;10.820;2024-02-16T10:47:48;4.15;;;3.33;;
11191;SDS011;5652;48.406;10.820;2024-02-16T10:50:15;4.13;;;3.38;;
11191;SDS011;5652;48.406;10.820;2024-02-16T10:52:43;5.05;;;3.45;;
11191;SDS011;5652;48.406;10.820;2024-02-16T10:55:11;4.35;;;3.20;;
11191;SDS011;5652;48.406;10.820;2024-02-16T10:57:40;4.80;;;2.97;;
11191;SDS011;5652;48.406;10.820;2024-02-16T11:00:07;4.57;;;3.30;;
11191;SDS011;5652;48.406;10.820;2024-02-16T11:02:50;5.07;;;3.00;;
11191;SDS011;5652;48.406;10.820;2024-02-16T11:05:18;4.13;;;2.88;;
11191;SDS011;5652;48.406;10.820;2024-02-16T11:07:45;4.63;;;3.10;;
11191;SDS011;5652;48.406;10.820;2024-02-16T11:10:12;5.55;;;4.38;;
11191;SDS011;5652;48.406;10.820;2024-02-16T11:12:43;4.70;;;2.88;;
11191;SDS011;5652;48.406;10.820;2024-02-16T11:15:13;4.18;;;2.90;;
11191;SDS011;5652;48.406;10.820;2024-02-16T11:17:40;4.07;;;2.90;;
11191;SDS011;5652;48.406;10.820;2024-02-16T11:20:07;4.25;;;3.05;;
11191;SDS011;5652;48.406;10.820;2024-02-16T11:22:36;3.70;;;2.67;;
11191;SDS011;5652;48.406;10.820;2024-02-16T11:25:04;4.53;;;2.72;;
11191;SDS011;5652;48.406;10.820;2024-02-16T11:27:32;3.40;;;2.83;;
11191;SDS011;5652;48.406;10.820;2024-02-16T11:30:01;5.00;;;2.70;;
11191;SDS011;5652;48.406;10.820;2024-02-16T11:32:32;4.40;;;2.90;;
11191;SDS011;5652;48.406;10.820;2024-02-16T11:35:04;4.03;;;2.53;;
11191;SDS011;5652;48.406;10.820;2024-02-16T11:37:32;4.43;;;2.75;;
11191;SDS011;5652;48.406;10.820;2024-02-16T11:39:59;3.85;;;2.50;;
11191;SDS011;5652;48.406;10.820;2024-02-16T11:42:26;4.13;;;2.70;;
11191;SDS011;5652;48.406;10.820;2024-02-16T11:44:54;3.97;;;2.77;;
11191;SDS011;5652;48.406;10.820;2024-02-16T11:47:23;3.30;;;2.67;;
11191;SDS011;5652;48.406;10.820;2024-02-16T11:49:59;4.73;;;2.90;;
11191;SDS011;5652;48.406;10.820;2024-02-16T11:52:27;5.25;;;2.80;;
11191;SDS011;5652;48.406;10.820;2024-02-16T11:54:54;3.40;;;2.53;;
11191;SDS011;5652;48.406;10.820;2024-02-16T11:57:25;3.92;;;2.50;;
11191;SDS011;5652;48.406;10.820;2024-02-16T11:59:52;3.85;;;2.58;;
11191;SDS011;5652;48.406;10.820;2024-02-16T12:02:20;3.80;;;2.30;;
11191;SDS011;5652;48.406;10.820;2024-02-16T12:04:56;3.45;;;2.40;;
11191;SDS011;5652;48.406;10.820;2024-02-16T12:07:25;3.40;;;2.38;;
11191;SDS011;5652;48.406;10.820;2024-02-16T12:09:56;3.15;;;2.38;;
11191;SDS011;5652;48.406;10.820;2024-02-16T12:12:23;5.60;;;2.70;;
11191;SDS011;5652;48.406;10.820;2024-02-16T12:14:50;2.93;;;2.20;;
11191;SDS011;5652;48.406;10.820;2024-02-16T12:17:17;3.35;;;2.45;;
11191;SDS011;5652;48.406;10.820;2024-02-16T12:19:45;3.83;;;2.22;;
11191;SDS011;5652;48.406;10.820;2024-02-16T12:22:17;3.63;;;2.60;;
11191;SDS011;5652;48.406;10.820;2024-02-16T12:24:44;3.05;;;2.50;;
11191;SDS011;5652;48.406;10.820;2024-02-16T12:27:12;3.90;;;2.58;;
11191;SDS011;5652;48.406;10.820;2024-02-16T12:29:39;3.90;;;2.40;;
11191;SDS011;5652;48.406;10.820;2024-02-16T12:32:07;3.77;;;2.50;;
11191;SDS011;5652;48.406;10.820;2024-02-16T12:34:35;3.78;;;2.60;;
11191;SDS011;5652;48.406;10.820;2024-02-16T12:37:03;3.92;;;2.65;;
11191;SDS011;5652;48.406;10.820;2024-02-16T12:39:33;3.47;;;2.70;;
11191;SDS011;5652;48.406;10.820;2024-02-16T12:42:00;2.90;;;2.50;;
11191;SDS011;5652;48.406;10.820;2024-02-16T12:44:28;4.30;;;2.90;;
11191;SDS011;5652;48.406;10.820;2024-02-16T12:46:55;5.15;;;2.80;;
11191;SDS011;5652;48.406;10.820;2024-02-16T12:49:22;4.22;;;2.92;;
11191;SDS011;5652;48.406;10.820;2024-02-16T12:51:51;6.03;;;2.90;;
11191;SDS011;5652;48.406;10.820;2024-02-16T12:54:19;4.35;;;3.05;;
11191;SDS011;5652;48.406;10.820;2024-02-16T12:56:48;4.30;;;2.90;;
11191;SDS011;5652;48.406;10.820;2024-02-16T12:59:16;6.45;;;2.97;;
11191;SDS011;5652;48.406;10.820;2024-02-16T13:01:43;4.20;;;2.70;;
11191;SDS011;5652;48.406;10.820;2024-02-16T13:04:11;4.05;;;2.88;;
11191;SDS011;5652;48.406;10.820;2024-02-16T13:06:45;4.65;;;2.78;;
11191;SDS011;5652;48.406;10.820;2024-02-16T13:09:12;4.97;;;2.75;;
11191;SDS011;5652;48.406;10.820;2024-02-16T13:11:40;4.20;;;2.80;;
11191;SDS011;5652;48.406;10.820;2024-02-16T13:14:08;4.53;;;2.70;;
11191;SDS011;5652;48.406;10.820;2024-02-16T13:16:35;3.97;;;2.70;;
11191;SDS011;5652;48.406;10.820;2024-02-16T13:19:02;4.10;;;2.58;;
11191;SDS011;5652;48.406;10.820;2024-02-16T13:21:29;4.00;;;2.45;;
11191;SDS011;5652;48.406;10.820;2024-02-16T13:23:57;4.07;;;2.35;;
11191;SDS011;5652;48.406;10.820;2024-02-16T13:26:24;4.30;;;2.33;;
11191;SDS011;5652;48.406;10.820;2024-02-16T13:28:51;3.58;;;2.45;;
11191;SDS011;5652;48.406;10.820;2024-02-16T13:31:21;3.53;;;2.30;;
11191;SDS011;5652;48.406;10.820;2024-02-16T13:33:48;2.93;;;2.20;;
11191;SDS011;5652;48.406;10.820;2024-02-16T13:36:15;3.08;;;2.15;;
11191;SDS011;5652;48.406;10.820;2024-02-16T13:38:43;4.10;;;2.25;;
11191;SDS011;5652;48.406;10.820;2024-02-16T13:41:10;2.88;;;2.00;;
11191;SDS011;5652;48.406;10.820;2024-02-16T13:43:37;3.22;;;1.92;;
11191;SDS011;5652;48.406;10.820;2024-02-16T13:46:04;2.90;;;1.85;;
11191;SDS011;5652;48.406;10.820;2024-02-16T13:48:32;2.33;;;1.92;;
11191;SDS011;5652;48.406;10.820;2024-02-16T13:51:02;2.42;;;1.90;;
11191;SDS011;5652;48.406;10.820;2024-02-16T13:53:32;2.63;;;1.90;;
11191;SDS011;5652;48.406;10.820;2024-02-16T13:55:59;2.40;;;1.83;;
11191;SDS011;5652;48.406;10.820;2024-02-16T13:58:29;4.67;;;2.00;;
11191;SDS011;5652;48.406;10.820;2024-02-16T14:00:56;2.42;;;1.80;;
11191;SDS011;5652;48.406;10.820;2024-02-16T14:03:23;2.22;;;1.80;;
11191;SDS011;5652;48.406;10.820;2024-02-16T14:05:52;2.95;;;1.90;;
11191;SDS011;5652;48.406;10.820;2024-02-16T14:08:19;3.58;;;1.95;;
11191;SDS011;5652;48.406;10.820;2024-02-16T14:10:47;5.28;;;1.90;;
11191;SDS011;5652;48.406;10.820;2024-02-16T14:13:14;2.40;;;1.80;;
11191;SDS011;5652;48.406;10.820;2024-02-16T14:15:42;3.63;;;2.40;;
11191;SDS011;5652;48.406;10.820;2024-02-16T14:18:09;2.22;;;1.80;;
11191;SDS011;5652;48.406;10.820;2024-02-16T14:20:36;3.35;;;2.00;;
11191;SDS011;5652;48.406;10.820;2024-02-16T14:23:04;3.50;;;2.42;;
11191;SDS011;5652;48.406;10.820;2024-02-16T14:25:34;2.85;;;2.10;;
11191;SDS011;5652;48.406;10.820;2024-02-16T14:28:02;2.45;;;2.05;;
11191;SDS011;5652;48.406;10.820;2024-02-16T14:30:30;4.80;;;2.50;;
11191;SDS011;5652;48.406;10.820;2024-02-16T14:32:58;4.10;;;2.25;;
11191;SDS011;5652;48.406;10.820;2024-02-16T14:35:25;4.88;;;2.42;;
11191;SDS011;5652;48.406;10.820;2024-02-16T14:37:52;3.85;;;2.30;;
11191;SDS011;5652;48.406;10.820;2024-02-16T14:40:21;4.33;;;2.80;;
11191;SDS011;5652;48.406;10.820;2024-02-16T14:42:48;4.65;;;2.78;;